createdAt,value
2019-05-03T00:00:35.478Z,97.51
2019-05-03T00:01:35.905Z,97.13
2019-05-03T00:02:36.328Z,98.18
2019-05-03T00:03:36.757Z,97.22
2019-05-03T00:04:37.183Z,97.70
2019-05-03T00:05:37.612Z,97.79
2019-05-03T00:06:38.053Z,97.79
2019-05-03T00:07:38.476Z,97.03
2019-05-03T00:08:38.882Z,97.31
2019-05-03T00:09:39.322Z,97.03
2019-05-03T00:10:39.737Z,97.22
2019-05-03T00:11:42.087Z,97.22
2019-05-03T00:12:42.158Z,97.99
2019-05-03T00:13:41.924Z,97.51
2019-05-03T00:14:41.727Z,97.31
2019-05-03T00:15:42.897Z,98.08
2019-05-03T00:16:42.295Z,97.03
2019-05-03T00:17:42.736Z,97.31
2019-05-03T00:18:43.151Z,97.89
2019-05-03T00:19:43.571Z,97.13
2019-05-03T00:20:44.007Z,96.89
2019-05-03T00:21:44.427Z,96.98
2019-05-03T00:22:44.856Z,97.27
2019-05-03T00:23:45.287Z,96.75
2019-05-03T00:24:45.706Z,97.27
2019-05-03T00:25:46.144Z,96.94
2019-05-03T00:26:46.561Z,96.89
2019-05-03T00:27:46.984Z,96.51
2019-05-03T00:28:47.419Z,96.60
2019-05-03T00:29:47.834Z,97.03
2019-05-03T00:30:48.295Z,97.13
2019-05-03T00:31:48.707Z,96.79
2019-05-03T00:32:49.118Z,97.03
2019-05-03T00:33:51.586Z,97.17
2019-05-03T00:34:49.962Z,97.17
2019-05-03T00:35:51.952Z,97.22
2019-05-03T00:36:52.505Z,97.31
2019-05-03T00:37:52.604Z,98.22
2019-05-03T00:38:52.478Z,98.03
2019-05-03T00:39:52.363Z,97.74
2019-05-03T00:40:52.526Z,98.03
2019-05-03T00:41:52.956Z,99.08
2019-05-03T00:42:53.380Z,99.65
2019-05-03T00:43:53.816Z,99.84
2019-05-03T00:44:54.248Z,99.74
2019-05-03T00:45:54.670Z,99.99
2019-05-03T00:46:55.093Z,99.99
2019-05-03T00:47:55.509Z,99.99
2019-05-03T00:48:55.941Z,99.99
2019-05-03T00:49:56.358Z,99.99
2019-05-03T00:50:56.789Z,99.93
2019-05-03T00:51:57.241Z,99.99
2019-05-03T00:52:57.646Z,99.99
2019-05-03T00:53:58.063Z,99.84
2019-05-03T00:54:58.491Z,99.65
2019-05-03T00:55:58.916Z,99.99
2019-05-03T00:56:59.339Z,99.99
2019-05-03T00:57:59.770Z,99.84
2019-05-03T00:59:02.064Z,99.93
2019-05-03T01:00:02.056Z,99.55
2019-05-03T01:01:02.634Z,99.17
2019-05-03T01:02:02.687Z,99.08
2019-05-03T01:03:02.290Z,98.88
2019-05-03T01:04:02.321Z,98.88
2019-05-03T01:05:02.996Z,99.08
2019-05-03T01:06:03.175Z,99.74
2019-05-03T01:07:03.612Z,98.88
2019-05-03T01:08:04.023Z,99.27
2019-05-03T01:09:04.470Z,98.03
2019-05-03T01:10:04.875Z,98.13
2019-05-03T01:11:05.306Z,98.41
2019-05-03T01:12:05.730Z,98.32
2019-05-03T01:13:06.158Z,98.22
2019-05-03T01:14:06.604Z,98.03
2019-05-03T01:15:07.012Z,98.41
2019-05-03T01:16:07.433Z,98.03
2019-05-03T01:17:07.860Z,98.41
2019-05-03T01:18:08.283Z,98.32
2019-05-03T01:19:08.708Z,98.32
2019-05-03T01:20:09.174Z,98.41
2019-05-03T01:21:11.591Z,98.17
2019-05-03T01:22:11.809Z,98.32
2019-05-03T01:23:12.344Z,98.17
2019-05-03T01:24:12.290Z,98.17
2019-05-03T01:25:12.045Z,97.41
2019-05-03T01:26:11.922Z,97.31
2019-05-03T01:27:12.462Z,97.13
2019-05-03T01:28:12.540Z,97.03
2019-05-03T01:29:12.967Z,96.46
2019-05-03T01:30:13.395Z,95.98
2019-05-03T01:31:13.812Z,95.79
2019-05-03T01:32:14.262Z,95.98
2019-05-03T01:33:14.669Z,95.51
2019-05-03T01:34:15.092Z,96.36
2019-05-03T01:35:15.521Z,94.84
2019-05-03T01:36:15.944Z,94.93
2019-05-03T01:37:16.369Z,96.08
2019-05-03T01:38:19.401Z,95.79
2019-05-03T01:39:17.260Z,95.03
2019-05-03T01:40:17.644Z,95.12
2019-05-03T01:41:18.067Z,94.56
2019-05-03T01:42:18.494Z,92.56
2019-05-03T01:43:18.915Z,91.42
2019-05-03T01:44:19.343Z,89.99
2019-05-03T01:45:19.810Z,89.61
2019-05-03T01:46:20.204Z,89.14
2019-05-03T01:47:21.940Z,88.85
2019-05-03T01:48:21.680Z,87.80
2019-05-03T01:49:22.847Z,87.42
2019-05-03T01:50:22.892Z,87.61
2019-05-03T01:51:22.340Z,87.71
2019-05-03T01:52:22.769Z,87.80
2019-05-03T01:53:23.204Z,87.32
2019-05-03T01:54:23.610Z,87.32
2019-05-03T01:55:24.031Z,87.23
2019-05-03T01:56:24.463Z,86.94
2019-05-03T01:57:24.887Z,87.42
2019-05-03T01:58:25.331Z,88.09
2019-05-03T01:59:25.739Z,87.80
2019-05-03T02:00:26.197Z,87.99
2019-05-03T02:01:26.581Z,88.18
2019-05-03T02:02:27.018Z,87.42
2019-05-03T02:03:27.445Z,87.90
2019-05-03T02:04:27.851Z,87.99
2019-05-03T02:05:28.281Z,88.56
2019-05-03T02:06:28.706Z,88.56
2019-05-03T02:07:29.148Z,88.37
2019-05-03T02:08:29.560Z,88.46
2019-05-03T02:09:29.980Z,89.14
2019-05-03T02:10:32.051Z,88.66
2019-05-03T02:11:32.554Z,89.04
2019-05-03T02:12:32.179Z,88.37
2019-05-03T02:13:32.124Z,89.32
2019-05-03T02:14:32.128Z,89.04
2019-05-03T02:15:32.725Z,89.04
2019-05-03T02:16:32.952Z,88.18
2019-05-03T02:17:33.378Z,88.37
2019-05-03T02:18:33.805Z,89.04
2019-05-03T02:19:34.226Z,88.28
2019-05-03T02:20:34.669Z,88.75
2019-05-03T02:21:35.082Z,87.90
2019-05-03T02:22:35.520Z,87.90
2019-05-03T02:23:35.934Z,87.90
2019-05-03T02:24:36.355Z,87.71
2019-05-03T02:25:36.802Z,87.80
2019-05-03T02:26:37.208Z,87.85
2019-05-03T02:27:37.629Z,87.66
2019-05-03T02:28:38.089Z,88.56
2019-05-03T02:29:38.502Z,88.18
2019-05-03T02:30:38.913Z,87.99
2019-05-03T02:31:39.333Z,88.28
2019-05-03T02:32:39.756Z,88.66
2019-05-03T02:33:40.207Z,88.52
2019-05-03T02:34:43.591Z,88.80
2019-05-03T02:35:42.976Z,88.71
2019-05-03T02:36:42.883Z,88.52
2019-05-03T02:37:43.870Z,88.71
2019-05-03T02:38:43.113Z,89.04
2019-05-03T02:39:42.915Z,88.94
2019-05-03T02:40:43.246Z,89.18
2019-05-03T02:41:46.020Z,89.37
2019-05-03T02:42:46.435Z,89.47
2019-05-03T02:43:45.214Z,90.33
2019-05-03T02:44:46.114Z,90.23
2019-05-03T02:45:45.772Z,90.23
2019-05-03T02:46:45.709Z,90.33
2019-05-03T02:47:47.139Z,91.03
2019-05-03T02:48:46.560Z,90.75
2019-05-03T02:49:46.979Z,90.89
2019-05-03T02:50:47.413Z,91.47
2019-05-03T02:51:47.830Z,91.94
2019-05-03T02:52:48.257Z,92.03
2019-05-03T02:53:49.459Z,92.41
2019-05-03T02:54:49.121Z,92.13
2019-05-03T02:55:49.527Z,92.99
2019-05-03T02:56:49.960Z,93.08
2019-05-03T02:57:50.391Z,93.46
2019-05-03T02:58:50.816Z,93.94
2019-05-03T02:59:51.230Z,94.32
2019-05-03T03:00:51.657Z,94.42
2019-05-03T03:01:52.088Z,95.08
2019-05-03T03:02:52.512Z,95.56
2019-05-03T03:03:55.818Z,96.03
2019-05-03T03:04:56.164Z,96.22
2019-05-03T03:05:56.013Z,96.41
2019-05-03T03:06:55.614Z,96.50
2019-05-03T03:07:55.902Z,96.79
2019-05-03T03:08:56.151Z,97.55
2019-05-03T03:09:55.946Z,97.64
2019-05-03T03:10:55.908Z,97.36
2019-05-03T03:11:56.337Z,97.45
2019-05-03T03:12:56.756Z,97.17
2019-05-03T03:13:57.180Z,97.45
2019-05-03T03:14:57.608Z,98.12
2019-05-03T03:15:58.032Z,97.27
2019-05-03T03:16:58.465Z,97.27
2019-05-03T03:17:58.898Z,97.83
2019-05-03T03:18:59.306Z,97.93
2019-05-03T03:19:59.728Z,97.64
2019-05-03T03:21:00.167Z,97.55
2019-05-03T03:22:00.590Z,97.36
2019-05-03T03:23:01.015Z,97.64
2019-05-03T03:24:01.431Z,97.55
2019-05-03T03:25:01.858Z,97.74
2019-05-03T03:26:02.281Z,98.03
2019-05-03T03:27:05.158Z,97.64
2019-05-03T03:28:05.315Z,96.60
2019-05-03T03:29:05.774Z,96.98
2019-05-03T03:30:07.333Z,96.89
2019-05-03T03:31:08.350Z,96.98
2019-05-03T03:32:09.261Z,97.36
2019-05-03T03:33:08.609Z,97.74
2019-05-03T03:34:08.050Z,97.27
2019-05-03T03:35:11.622Z,97.74
2019-05-03T03:36:31.272Z,97.83
2019-05-03T03:37:10.268Z,98.31
2019-05-03T03:38:07.370Z,98.55
2019-05-03T03:39:07.804Z,99.50
2019-05-03T03:40:08.222Z,99.50
2019-05-03T03:41:08.655Z,99.97
2019-05-03T03:42:09.078Z,99.99
2019-05-03T03:43:09.498Z,99.99
2019-05-03T03:44:09.921Z,99.99
2019-05-03T03:45:10.348Z,99.99
2019-05-03T03:46:10.772Z,99.99
2019-05-03T03:47:11.195Z,99.99
2019-05-03T03:48:11.627Z,99.99
2019-05-03T03:49:12.051Z,99.99
2019-05-03T03:50:15.033Z,99.99
2019-05-03T03:51:15.370Z,99.99
2019-05-03T03:52:15.863Z,99.99
2019-05-03T03:53:15.447Z,99.99
2019-05-03T03:54:15.539Z,99.99
2019-05-03T03:55:15.943Z,99.99
2019-05-03T03:56:16.076Z,99.99
2019-05-03T03:57:15.948Z,99.99
2019-05-03T03:58:22.039Z,99.99
2019-05-03T03:59:16.295Z,99.99
2019-05-03T04:00:16.727Z,99.99
2019-05-03T04:01:17.133Z,99.99
2019-05-03T04:02:17.616Z,99.99
2019-05-03T04:03:17.986Z,99.99
2019-05-03T04:04:18.423Z,99.99
2019-05-03T04:05:18.826Z,99.99
2019-05-03T04:06:19.256Z,99.99
2019-05-03T04:07:19.677Z,99.99
2019-05-03T04:08:20.100Z,99.99
2019-05-03T04:09:20.522Z,99.99
2019-05-03T04:10:20.966Z,99.99
2019-05-03T04:11:21.378Z,99.99
2019-05-03T04:12:21.802Z,99.99
2019-05-03T04:13:25.332Z,99.99
2019-05-03T04:14:25.274Z,99.99
2019-05-03T04:15:25.751Z,99.99
2019-05-03T04:16:25.814Z,99.99
2019-05-03T04:17:26.041Z,99.99
2019-05-03T04:18:25.559Z,99.99
2019-05-03T04:19:25.204Z,99.99
2019-05-03T04:20:25.863Z,99.99
2019-05-03T04:21:25.857Z,99.99
2019-05-03T04:22:26.047Z,99.99
2019-05-03T04:23:26.765Z,99.99
2019-05-03T04:24:26.886Z,99.99
2019-05-03T04:25:27.323Z,99.99
2019-05-03T04:26:29.897Z,99.99
2019-05-03T04:27:28.157Z,99.99
2019-05-03T04:28:28.586Z,99.99
2019-05-03T04:29:29.009Z,99.99
2019-05-03T04:30:29.474Z,99.99
2019-05-03T04:31:29.853Z,99.99
2019-05-03T04:32:30.283Z,99.99
2019-05-03T04:33:30.722Z,99.99
2019-05-03T04:34:31.167Z,99.99
2019-05-03T04:35:31.552Z,99.99
2019-05-03T04:36:31.978Z,99.99
2019-05-03T04:37:32.427Z,99.99
2019-05-03T04:38:35.279Z,99.99
2019-05-03T04:39:35.640Z,99.99
2019-05-03T04:40:35.899Z,99.99
2019-05-03T04:41:35.771Z,99.99
2019-05-03T04:42:35.666Z,99.99
2019-05-03T04:43:35.749Z,99.99
2019-05-03T04:44:35.924Z,99.99
2019-05-03T04:45:36.668Z,99.99
2019-05-03T04:46:36.213Z,99.99
2019-05-03T04:47:36.734Z,99.99
2019-05-03T04:48:37.070Z,99.99
2019-05-03T04:49:37.503Z,99.99
2019-05-03T04:50:37.926Z,99.99
2019-05-03T04:51:38.422Z,99.99
2019-05-03T04:52:38.766Z,99.99
2019-05-03T04:53:39.189Z,99.99
2019-05-03T04:54:39.611Z,99.99
2019-05-03T04:55:40.042Z,99.99
2019-05-03T04:56:40.456Z,99.99
2019-05-03T04:57:45.919Z,99.99
2019-05-03T04:58:41.305Z,99.99
2019-05-03T04:59:41.763Z,99.99
2019-05-03T05:00:42.175Z,99.99
2019-05-03T05:01:42.584Z,99.99
2019-05-03T05:02:45.601Z,99.99
2019-05-03T05:03:45.662Z,99.99
2019-05-03T05:04:46.206Z,99.99
2019-05-03T05:05:45.317Z,99.99
2019-05-03T05:06:45.111Z,99.99
2019-05-03T05:07:45.821Z,99.99
2019-05-03T05:08:46.114Z,99.99
2019-05-03T05:09:45.983Z,99.99
2019-05-03T05:10:46.416Z,99.99
2019-05-03T05:11:46.837Z,99.99
2019-05-03T05:12:47.279Z,99.99
2019-05-03T05:13:47.694Z,99.99
2019-05-03T05:14:48.132Z,99.99
2019-05-03T05:15:48.536Z,99.99
2019-05-03T05:16:48.953Z,99.99
2019-05-03T05:17:49.387Z,99.99
2019-05-03T05:18:49.789Z,99.99
2019-05-03T05:19:50.329Z,99.99
2019-05-03T05:20:50.643Z,99.99
2019-05-03T05:21:51.078Z,99.99
2019-05-03T05:22:51.494Z,99.99
2019-05-03T05:23:51.929Z,99.99
2019-05-03T05:24:52.344Z,99.99
2019-05-03T05:25:54.916Z,99.99
2019-05-03T05:26:54.967Z,99.99
2019-05-03T05:27:55.425Z,99.99
2019-05-03T05:28:54.925Z,99.99
2019-05-03T05:29:55.397Z,99.99
2019-05-03T05:30:54.909Z,99.99
2019-05-03T05:31:55.326Z,99.99
2019-05-03T05:32:55.743Z,99.99
2019-05-03T05:33:56.169Z,99.99
2019-05-03T05:34:56.593Z,99.99
2019-05-03T05:35:57.014Z,99.99
2019-05-03T05:36:57.449Z,99.99
2019-05-03T05:37:57.888Z,99.99
2019-05-03T05:38:58.293Z,99.99
2019-05-03T05:39:58.718Z,99.99
2019-05-03T05:40:59.138Z,99.99
2019-05-03T05:41:59.564Z,99.99
2019-05-03T05:42:59.990Z,99.99
2019-05-03T05:44:00.415Z,99.99
2019-05-03T05:45:00.836Z,99.99
2019-05-03T05:46:01.276Z,99.99
2019-05-03T05:47:01.690Z,99.99
2019-05-03T05:48:02.124Z,99.99
2019-05-03T05:49:04.235Z,99.99
2019-05-03T05:50:04.858Z,99.99
2019-05-03T05:51:04.434Z,99.99
2019-05-03T05:52:04.991Z,99.99
2019-05-03T05:53:04.988Z,99.99
2019-05-03T05:54:05.252Z,99.99
2019-05-03T05:55:05.090Z,99.99
2019-05-03T05:56:05.518Z,99.99
2019-05-03T05:57:08.383Z,99.99
2019-05-03T05:58:08.359Z,99.99
2019-05-03T05:59:06.805Z,99.99
2019-05-03T06:00:07.220Z,99.99
2019-05-03T06:01:07.635Z,99.99
2019-05-03T06:02:08.064Z,99.99
2019-05-03T06:03:08.494Z,99.99
2019-05-03T06:04:10.117Z,99.99
2019-05-03T06:05:09.342Z,99.99
2019-05-03T06:06:09.767Z,99.99
2019-05-03T06:07:10.190Z,99.99
2019-05-03T06:08:10.618Z,99.99
2019-05-03T06:09:11.038Z,99.99
2019-05-03T06:10:14.055Z,99.99
2019-05-03T06:11:11.885Z,99.99
2019-05-03T06:12:12.311Z,99.99
2019-05-03T06:13:12.743Z,99.99
2019-05-03T06:14:15.181Z,99.99
2019-05-03T06:15:14.997Z,99.99
2019-05-03T06:16:15.496Z,99.99
2019-05-03T06:17:14.667Z,99.99
2019-05-03T06:18:14.876Z,99.99
2019-05-03T06:19:15.290Z,99.99
2019-05-03T06:20:15.712Z,99.99
2019-05-03T06:21:16.147Z,99.99
2019-05-03T06:22:16.565Z,99.99
2019-05-03T06:23:16.987Z,99.99
2019-05-03T06:24:17.416Z,99.74
2019-05-03T06:25:17.889Z,99.93
2019-05-03T06:26:18.272Z,99.74
2019-05-03T06:27:18.695Z,99.64
2019-05-03T06:28:20.948Z,99.22
2019-05-03T06:29:19.544Z,98.93
2019-05-03T06:30:19.982Z,98.46
2019-05-03T06:31:22.664Z,98.27
2019-05-03T06:32:20.821Z,98.22
2019-05-03T06:33:21.249Z,98.12
2019-05-03T06:34:21.690Z,98.83
2019-05-03T06:35:22.110Z,98.08
2019-05-03T06:36:24.251Z,97.98
2019-05-03T06:37:24.997Z,97.55
2019-05-03T06:38:24.431Z,96.79
2019-05-03T06:39:24.888Z,95.08
2019-05-03T06:40:25.254Z,94.08
2019-05-03T06:41:25.094Z,92.74
2019-05-03T06:42:25.491Z,90.70
2019-05-03T06:43:25.518Z,87.79
2019-05-03T06:44:28.605Z,86.45
2019-05-03T06:45:26.372Z,84.55
2019-05-03T06:46:30.225Z,84.26
2019-05-03T06:47:28.589Z,85.51
2019-05-03T06:48:31.905Z,87.60
2019-05-03T06:49:28.098Z,87.32
2019-05-03T06:50:29.042Z,88.79
2019-05-03T06:51:28.961Z,90.56
2019-05-03T06:52:29.532Z,89.94
2019-05-03T06:53:29.807Z,86.12
2019-05-03T06:54:30.298Z,83.06
2019-05-03T06:55:30.684Z,80.96
2019-05-03T06:56:31.111Z,79.82
2019-05-03T06:57:31.532Z,82.20
2019-05-03T06:58:35.810Z,80.24
2019-05-03T06:59:32.401Z,79.15
2019-05-03T07:00:34.936Z,78.10
2019-05-03T07:01:34.488Z,78.06
2019-05-03T07:02:35.385Z,80.69
2019-05-03T07:03:35.444Z,81.03
2019-05-03T07:04:34.787Z,82.75
2019-05-03T07:05:35.496Z,82.37
2019-05-03T07:06:40.348Z,82.56
2019-05-03T07:07:35.866Z,80.88
2019-05-03T07:08:36.294Z,79.49
2019-05-03T07:09:36.724Z,78.16
2019-05-03T07:10:37.231Z,77.82
2019-05-03T07:11:37.589Z,75.72
2019-05-03T07:12:38.021Z,75.96
2019-05-03T07:13:38.456Z,77.78
2019-05-03T07:14:38.887Z,77.40
2019-05-03T07:15:39.318Z,77.64
2019-05-03T07:16:39.749Z,77.30
2019-05-03T07:17:40.207Z,76.64
2019-05-03T07:18:40.612Z,76.25
2019-05-03T07:19:41.041Z,75.78
2019-05-03T07:20:41.483Z,76.40
2019-05-03T07:21:41.914Z,77.40
2019-05-03T07:22:44.423Z,75.84
2019-05-03T07:23:42.772Z,76.69
2019-05-03T07:24:45.156Z,77.26
2019-05-03T07:25:44.794Z,77.93
2019-05-03T07:26:44.822Z,78.69
2019-05-03T07:27:45.266Z,77.74
2019-05-03T07:28:49.346Z,77.93
2019-05-03T07:29:45.367Z,77.07
2019-05-03T07:30:45.799Z,75.87
2019-05-03T07:31:46.227Z,74.54
2019-05-03T07:32:46.660Z,74.73
2019-05-03T07:33:47.117Z,74.98
2019-05-03T07:34:47.519Z,74.94
2019-05-03T07:35:47.956Z,75.84
2019-05-03T07:36:48.406Z,76.31
2019-05-03T07:37:48.830Z,76.50
2019-05-03T07:38:49.245Z,75.78
2019-05-03T07:39:49.679Z,74.54
2019-05-03T07:40:50.117Z,74.96
2019-05-03T07:41:50.544Z,72.03
2019-05-03T07:42:50.974Z,71.43
2019-05-03T07:43:51.415Z,71.33
2019-05-03T07:44:51.844Z,71.43
2019-05-03T07:45:52.268Z,70.95
2019-05-03T07:46:52.714Z,70.28
2019-05-03T07:47:53.142Z,69.43
2019-05-03T07:48:54.855Z,67.42
2019-05-03T07:49:54.671Z,67.07
2019-05-03T07:50:54.731Z,66.56
2019-05-03T07:51:55.412Z,66.92
2019-05-03T07:52:55.827Z,66.38
2019-05-03T07:53:55.789Z,65.96
2019-05-03T07:54:56.215Z,65.01
2019-05-03T07:55:56.652Z,64.53
2019-05-03T07:56:57.092Z,63.67
2019-05-03T07:57:57.546Z,63.70
2019-05-03T07:59:02.759Z,63.42
2019-05-03T07:59:58.432Z,61.66
2019-05-03T08:01:06.032Z,60.23
2019-05-03T08:01:59.297Z,59.47
2019-05-03T08:02:59.755Z,57.17
2019-05-03T08:04:00.181Z,56.40
2019-05-03T08:05:00.622Z,55.80
2019-05-03T08:06:01.064Z,58.23
2019-05-03T08:07:01.514Z,59.38
2019-05-03T08:08:01.949Z,59.50
2019-05-03T08:09:02.389Z,56.50
2019-05-03T08:10:05.029Z,56.12
2019-05-03T08:11:05.140Z,54.33
2019-05-03T08:12:05.140Z,52.83
2019-05-03T08:13:04.675Z,51.03
2019-05-03T08:14:04.982Z,52.20
2019-05-03T08:15:05.400Z,50.34
2019-05-03T08:16:06.031Z,49.31
2019-05-03T08:17:05.960Z,50.34
2019-05-03T08:18:06.404Z,50.81
2019-05-03T08:19:06.870Z,50.26
2019-05-03T08:20:07.297Z,49.35
2019-05-03T08:21:07.736Z,50.95
2019-05-03T08:22:08.172Z,51.91
2019-05-03T08:23:08.614Z,52.01
2019-05-03T08:24:09.160Z,52.81
2019-05-03T08:25:09.508Z,53.65
2019-05-03T08:26:09.986Z,56.87
2019-05-03T08:27:10.507Z,57.43
2019-05-03T08:28:10.826Z,57.78
2019-05-03T08:29:16.243Z,56.06
2019-05-03T08:30:11.713Z,54.91
2019-05-03T08:31:12.161Z,55.42
2019-05-03T08:32:12.596Z,54.30
2019-05-03T08:33:14.777Z,51.75
2019-05-03T08:34:15.288Z,51.24
2019-05-03T08:35:15.318Z,51.75
2019-05-03T08:36:15.635Z,49.69
2019-05-03T08:37:15.370Z,48.52
2019-05-03T08:38:15.376Z,49.09
2019-05-03T08:39:15.873Z,49.78
2019-05-03T08:40:16.180Z,53.10
2019-05-03T08:41:16.690Z,53.34
2019-05-03T08:42:17.059Z,51.79
2019-05-03T08:43:17.527Z,53.51
2019-05-03T08:44:17.941Z,53.49
2019-05-03T08:45:18.392Z,55.50
2019-05-03T08:46:18.834Z,57.09
2019-05-03T08:47:19.293Z,57.89
2019-05-03T08:48:19.721Z,56.48
2019-05-03T08:49:20.167Z,53.96
2019-05-03T08:50:21.555Z,51.57
2019-05-03T08:51:21.042Z,52.86
2019-05-03T08:52:21.493Z,54.10
2019-05-03T08:53:21.928Z,54.00
2019-05-03T08:54:22.364Z,53.86
2019-05-03T08:55:24.854Z,51.36
2019-05-03T08:56:24.550Z,48.25
2019-05-03T08:57:25.411Z,45.98
2019-05-03T08:58:25.623Z,45.72
2019-05-03T08:59:29.856Z,46.91
2019-05-03T09:00:25.057Z,46.41
2019-05-03T09:01:25.478Z,47.92
2019-05-03T09:02:25.992Z,48.21
2019-05-03T09:03:26.365Z,49.14
2019-05-03T09:04:36.119Z,49.80
2019-05-03T09:05:27.263Z,50.55
2019-05-03T09:06:27.704Z,51.45
2019-05-03T09:07:28.153Z,52.31
2019-05-03T09:08:28.588Z,51.95
2019-05-03T09:09:29.029Z,51.29
2019-05-03T09:10:29.478Z,50.19
2019-05-03T09:11:34.106Z,48.66
2019-05-03T09:12:30.360Z,49.26
2019-05-03T09:13:30.800Z,50.02
2019-05-03T09:14:41.394Z,51.35
2019-05-03T09:15:31.721Z,51.07
2019-05-03T09:16:32.134Z,52.00
2019-05-03T09:17:32.571Z,53.24
2019-05-03T09:18:34.596Z,52.88
2019-05-03T09:19:34.700Z,52.81
2019-05-03T09:20:35.564Z,52.05
2019-05-03T09:21:34.797Z,53.59
2019-05-03T09:22:34.890Z,54.86
2019-05-03T09:23:35.738Z,54.50
2019-05-03T09:24:35.642Z,54.19
2019-05-03T09:25:36.082Z,55.60
2019-05-03T09:26:36.503Z,55.82
2019-05-03T09:27:36.986Z,54.25
2019-05-03T09:28:37.381Z,53.16
2019-05-03T09:29:43.141Z,50.31
2019-05-03T09:30:38.258Z,47.34
2019-05-03T09:31:38.698Z,47.66
2019-05-03T09:32:39.145Z,46.46
2019-05-03T09:33:39.606Z,47.23
2019-05-03T09:34:40.033Z,47.61
2019-05-03T09:35:40.476Z,48.71
2019-05-03T09:36:40.913Z,49.49
2019-05-03T09:37:41.354Z,50.52
2019-05-03T09:38:41.813Z,50.52
2019-05-03T09:39:44.046Z,50.62
2019-05-03T09:40:42.687Z,50.35
2019-05-03T09:41:45.026Z,50.35
2019-05-03T09:42:44.493Z,50.35
2019-05-03T09:43:44.987Z,51.35
2019-05-03T09:44:45.090Z,54.19
2019-05-03T09:45:45.753Z,55.24
2019-05-03T09:46:45.311Z,55.79
2019-05-03T09:47:45.767Z,55.18
2019-05-03T09:48:46.218Z,54.44
2019-05-03T09:49:46.628Z,52.77
2019-05-03T09:50:47.062Z,50.41
2019-05-03T09:51:47.505Z,49.04
2019-05-03T09:52:47.949Z,48.93
2019-05-03T09:53:48.387Z,46.34
2019-05-03T09:54:48.826Z,44.71
2019-05-03T09:55:49.275Z,44.98
2019-05-03T09:56:55.905Z,45.10
2019-05-03T09:57:50.162Z,45.84
2019-05-03T09:58:50.611Z,46.61
2019-05-03T09:59:57.070Z,47.47
2019-05-03T10:00:51.538Z,48.23
2019-05-03T10:01:51.949Z,47.87
2019-05-03T10:02:54.688Z,46.94
2019-05-03T10:03:54.794Z,47.49
2019-05-03T10:04:55.270Z,48.13
2019-05-03T10:05:55.366Z,48.18
2019-05-03T10:06:54.843Z,47.30
2019-05-03T10:07:54.601Z,48.04
2019-05-03T10:08:55.035Z,50.02
2019-05-03T10:09:55.529Z,50.43
2019-05-03T10:10:55.913Z,49.40
2019-05-03T10:11:56.350Z,48.25
2019-05-03T10:12:56.782Z,47.30
2019-05-03T10:13:57.223Z,48.42
2019-05-03T10:14:57.702Z,48.30
2019-05-03T10:15:58.110Z,49.09
2019-05-03T10:16:58.556Z,49.44
2019-05-03T10:17:58.989Z,49.54
2019-05-03T10:18:59.423Z,50.49
2019-05-03T10:19:59.879Z,52.95
2019-05-03T10:21:00.301Z,52.09
2019-05-03T10:22:00.772Z,52.86
2019-05-03T10:23:01.191Z,52.48
2019-05-03T10:24:01.616Z,51.31
2019-05-03T10:25:02.066Z,48.30
2019-05-03T10:26:02.519Z,49.47
2019-05-03T10:27:02.938Z,48.73
2019-05-03T10:28:05.648Z,47.58
2019-05-03T10:29:05.400Z,47.61
2019-05-03T10:30:13.018Z,45.65
2019-05-03T10:31:07.448Z,45.91
2019-05-03T10:32:05.184Z,44.29
2019-05-03T10:33:06.072Z,44.29
2019-05-03T10:34:06.076Z,44.09
2019-05-03T10:35:06.477Z,44.69
2019-05-03T10:36:06.904Z,43.23
2019-05-03T10:37:07.347Z,43.69
2019-05-03T10:38:07.783Z,45.46
2019-05-03T10:39:08.224Z,47.25
2019-05-03T10:40:08.692Z,47.82
2019-05-03T10:41:09.103Z,48.35
2019-05-03T10:42:09.546Z,48.47
2019-05-03T10:43:09.974Z,48.16
2019-05-03T10:44:10.430Z,47.61
2019-05-03T10:45:10.858Z,47.23
2019-05-03T10:46:11.291Z,47.54
2019-05-03T10:47:11.741Z,46.77
2019-05-03T10:48:12.180Z,48.18
2019-05-03T10:49:12.611Z,47.54
2019-05-03T10:50:13.049Z,46.77
2019-05-03T10:51:15.542Z,47.56
2019-05-03T10:52:15.031Z,46.97
2019-05-03T10:53:15.391Z,46.68
2019-05-03T10:54:14.799Z,47.44
2019-05-03T10:55:15.927Z,46.77
2019-05-03T10:56:22.736Z,47.42
2019-05-03T10:57:16.142Z,47.25
2019-05-03T10:58:16.522Z,45.65
2019-05-03T10:59:16.960Z,44.89
2019-05-03T11:00:42.447Z,45.15
2019-05-03T11:01:17.828Z,45.92
2019-05-03T11:02:18.311Z,46.30
2019-05-03T11:03:18.702Z,47.06
2019-05-03T11:04:19.141Z,47.25
2019-05-03T11:05:19.593Z,47.63
2019-05-03T11:06:20.017Z,47.63
2019-05-03T11:07:20.444Z,49.07
2019-05-03T11:08:20.899Z,48.68
2019-05-03T11:09:21.323Z,48.59
2019-05-03T11:10:21.757Z,47.97
2019-05-03T11:11:22.177Z,46.58
2019-05-03T11:12:22.636Z,46.01
2019-05-03T11:13:23.071Z,48.04
2019-05-03T11:14:25.409Z,48.99
2019-05-03T11:15:25.928Z,48.61
2019-05-03T11:16:25.497Z,47.94
2019-05-03T11:17:25.635Z,47.37
2019-05-03T11:18:25.337Z,46.99
2019-05-03T11:19:25.673Z,47.37
2019-05-03T11:20:29.073Z,47.73
2019-05-03T11:21:28.843Z,48.59
2019-05-03T11:22:26.976Z,49.33
2019-05-03T11:23:27.421Z,49.90
2019-05-03T11:24:27.851Z,50.12
2019-05-03T11:25:28.291Z,49.44
2019-05-03T11:26:28.747Z,49.73
2019-05-03T11:27:29.160Z,48.90
2019-05-03T11:28:29.588Z,48.47
2019-05-03T11:29:30.034Z,46.48
2019-05-03T11:30:30.473Z,44.64
2019-05-03T11:31:30.900Z,41.09
2019-05-03T11:32:31.334Z,39.92
2019-05-03T11:33:31.773Z,40.42
2019-05-03T11:34:32.219Z,39.68
2019-05-03T11:35:32.647Z,39.75
2019-05-03T11:36:34.779Z,40.50
2019-05-03T11:37:34.668Z,41.51
2019-05-03T11:38:34.993Z,42.94
2019-05-03T11:39:34.498Z,41.58
2019-05-03T11:40:35.553Z,40.84
2019-05-03T11:41:35.798Z,40.95
2019-05-03T11:42:35.723Z,40.72
2019-05-03T11:43:36.157Z,42.02
2019-05-03T11:44:36.625Z,43.05
2019-05-03T11:45:37.034Z,45.25
2019-05-03T11:46:37.471Z,45.03
2019-05-03T11:47:37.913Z,46.08
2019-05-03T11:48:38.352Z,47.32
2019-05-03T11:49:38.778Z,47.13
2019-05-03T11:50:39.247Z,47.80
2019-05-03T11:51:39.645Z,47.61
2019-05-03T11:52:40.086Z,47.61
2019-05-03T11:53:40.516Z,47.80
2019-05-03T11:54:40.954Z,48.66
2019-05-03T11:55:41.389Z,49.33
2019-05-03T11:56:41.813Z,49.42
2019-05-03T11:57:42.247Z,49.23
2019-05-03T11:58:42.674Z,50.21
2019-05-03T11:59:45.240Z,50.02
2019-05-03T12:00:45.091Z,49.23
2019-05-03T12:01:44.878Z,50.09
2019-05-03T12:02:44.868Z,50.18
2019-05-03T12:03:45.260Z,49.83
2019-05-03T12:04:45.952Z,49.44
2019-05-03T12:05:45.709Z,50.02
2019-05-03T12:06:46.142Z,50.12
2019-05-03T12:07:46.570Z,50.12
2019-05-03T12:08:46.995Z,50.18
2019-05-03T12:09:47.450Z,51.17
2019-05-03T12:10:57.281Z,50.98
2019-05-03T12:11:48.300Z,51.54
2019-05-03T12:12:48.729Z,51.62
2019-05-03T12:14:01.779Z,51.33
2019-05-03T12:14:49.591Z,50.88
2019-05-03T12:15:50.021Z,50.88
2019-05-03T12:17:55.079Z,50.49
2019-05-03T12:18:54.032Z,50.40
2019-05-03T12:19:52.849Z,48.78
2019-05-03T12:20:52.808Z,48.23
2019-05-03T12:21:53.102Z,47.08
2019-05-03T12:22:53.575Z,47.37
2019-05-03T12:23:56.149Z,47.27
2019-05-03T12:24:54.563Z,46.06
2019-05-03T12:25:54.820Z,45.58
2019-05-03T12:26:55.797Z,45.84
2019-05-03T12:27:55.211Z,46.13
2019-05-03T12:28:55.650Z,46.25
2019-05-03T12:29:56.100Z,46.13
2019-05-03T12:30:56.534Z,46.61
2019-05-03T12:31:56.945Z,46.13
2019-05-03T12:32:57.361Z,45.56
2019-05-03T12:33:57.818Z,45.84
2019-05-03T12:34:58.250Z,45.92
2019-05-03T12:35:58.713Z,45.72
2019-05-03T12:36:59.131Z,46.97
2019-05-03T12:37:59.537Z,46.75
2019-05-03T12:38:59.987Z,47.16
2019-05-03T12:40:00.391Z,47.06
2019-05-03T12:41:00.838Z,46.97
2019-05-03T12:42:01.286Z,46.97
2019-05-03T12:43:01.706Z,47.73
2019-05-03T12:44:04.502Z,48.11
2019-05-03T12:45:04.441Z,48.02
2019-05-03T12:46:04.952Z,48.57
2019-05-03T12:47:05.657Z,49.23
2019-05-03T12:48:04.947Z,48.57
2019-05-03T12:49:05.222Z,48.75
2019-05-03T12:50:05.283Z,48.02
2019-05-03T12:51:06.267Z,47.73
2019-05-03T12:52:05.612Z,47.63
2019-05-03T12:53:06.001Z,46.87
2019-05-03T12:54:06.433Z,47.63
2019-05-03T12:55:06.866Z,47.75
2019-05-03T12:56:11.749Z,47.56
2019-05-03T12:57:07.744Z,48.23
2019-05-03T12:58:08.179Z,47.66
2019-05-03T12:59:08.601Z,48.23